sensor_id;sensor_type;location;lat;lon;timestamp;pressure;altitude;pressure_sealevel;temperature;humidity
55149;BME280;49539;48.160;11.530;2022-09-27T00:02:00;94288.69;;;11.27;100.00
55149;BME280;49539;48.160;11.530;2022-09-27T00:04:26;94287.38;;;11.22;100.00
55149;BME280;49539;48.160;11.530;2022-09-27T00:06:51;94288.88;;;11.23;100.00
55149;BME280;49539;48.160;11.530;2022-09-27T00:09:17;94296.47;;;11.19;100.00
55149;BME280;49539;48.160;11.530;2022-09-27T00:11:42;94291.78;;;11.20;100.00
55149;BME280;49539;48.160;11.530;2022-09-27T00:14:10;94283.41;;;11.23;100.00
55149;BME280;49539;48.160;11.530;2022-09-27T00:16:38;94276.81;;;11.15;100.00
55149;BME280;49539;48.160;11.530;2022-09-27T00:19:07;94264.97;;;11.18;100.00
55149;BME280;49539;48.160;11.530;2022-09-27T00:21:34;94277.59;;;11.15;100.00
55149;BME280;49539;48.160;11.530;2022-09-27T00:24:00;94280.06;;;11.04;100.00
55149;BME280;49539;48.160;11.530;2022-09-27T00:26:26;94282.03;;;11.04;100.00
55149;BME280;49539;48.160;11.530;2022-09-27T00:28:52;94297.31;;;11.01;100.00
55149;BME280;49539;48.160;11.530;2022-09-27T00:31:25;94302.06;;;10.91;100.00
55149;BME280;49539;48.160;11.530;2022-09-27T00:33:54;94299.78;;;10.90;100.00
55149;BME280;49539;48.160;11.530;2022-09-27T00:36:21;94295.91;;;10.82;100.00
55149;BME280;49539;48.160;11.530;2022-09-27T00:38:48;94296.69;;;10.73;100.00
55149;BME280;49539;48.160;11.530;2022-09-27T00:41:27;94297.94;;;10.63;100.00
55149;BME280;49539;48.160;11.530;2022-09-27T00:43:55;94289.34;;;10.55;100.00
55149;BME280;49539;48.160;11.530;2022-09-27T00:46:32;94291.47;;;10.51;100.00
55149;BME280;49539;48.160;11.530;2022-09-27T00:49:08;94287.38;;;10.56;100.00
55149;BME280;49539;48.160;11.530;2022-09-27T00:51:38;94276.97;;;10.54;100.00
55149;BME280;49539;48.160;11.530;2022-09-27T00:54:06;94289.22;;;10.50;100.00
55149;BME280;49539;48.160;11.530;2022-09-27T00:56:36;94294.69;;;10.50;100.00
55149;BME280;49539;48.160;11.530;2022-09-27T01:01:38;94291.97;;;10.40;100.00
55149;BME280;49539;48.160;11.530;2022-09-27T01:04:12;94292.91;;;10.37;100.00
55149;BME280;49539;48.160;11.530;2022-09-27T01:06:39;94300.75;;;10.35;100.00
55149;BME280;49539;48.160;11.530;2022-09-27T01:09:07;94287.44;;;10.37;100.00
55149;BME280;49539;48.160;11.530;2022-09-27T01:20:34;94263.53;;;10.41;100.00
55149;BME280;49539;48.160;11.530;2022-09-27T01:23:37;94266.44;;;10.38;100.00
55149;BME280;49539;48.160;11.530;2022-09-27T01:31:41;94255.09;;;10.30;100.00
55149;BME280;49539;48.160;11.530;2022-09-27T01:34:45;94241.19;;;10.37;100.00
55149;BME280;49539;48.160;11.530;2022-09-27T01:39:57;94244.22;;;10.21;100.00
55149;BME280;49539;48.160;11.530;2022-09-27T01:42:30;94258.88;;;10.24;100.00
55149;BME280;49539;48.160;11.530;2022-09-27T01:45:08;94251.50;;;10.06;100.00
55149;BME280;49539;48.160;11.530;2022-09-27T01:47:42;94255.09;;;10.12;100.00
55149;BME280;49539;48.160;11.530;2022-09-27T01:50:16;94255.28;;;10.08;100.00
55149;BME280;49539;48.160;11.530;2022-09-27T01:52:48;94254.06;;;10.09;100.00
55149;BME280;49539;48.160;11.530;2022-09-27T01:55:16;94257.53;;;10.10;100.00
55149;BME280;49539;48.160;11.530;2022-09-27T01:57:52;94253.47;;;10.05;100.00
55149;BME280;49539;48.160;11.530;2022-09-27T02:00:19;94250.91;;;10.02;100.00
55149;BME280;49539;48.160;11.530;2022-09-27T02:02:58;94253.16;;;10.03;100.00
55149;BME280;49539;48.160;11.530;2022-09-27T02:05:29;94247.44;;;10.01;100.00
55149;BME280;49539;48.160;11.530;2022-09-27T02:07:59;94245.00;;;10.03;100.00
55149;BME280;49539;48.160;11.530;2022-09-27T02:10:38;94242.16;;;9.98;100.00
55149;BME280;49539;48.160;11.530;2022-09-27T02:13:13;94241.53;;;10.03;100.00
55149;BME280;49539;48.160;11.530;2022-09-27T02:15:51;94241.84;;;9.95;100.00
55149;BME280;49539;48.160;11.530;2022-09-27T02:18:26;94251.38;;;10.00;100.00
55149;BME280;49539;48.160;11.530;2022-09-27T02:20:57;94248.53;;;9.85;100.00
55149;BME280;49539;48.160;11.530;2022-09-27T02:23:43;94250.94;;;9.83;100.00
55149;BME280;49539;48.160;11.530;2022-09-27T02:26:26;94245.19;;;9.90;100.00
55149;BME280;49539;48.160;11.530;2022-09-27T02:28:56;94248.50;;;9.94;100.00
55149;BME280;49539;48.160;11.530;2022-09-27T02:31:24;94234.91;;;9.94;100.00
55149;BME280;49539;48.160;11.530;2022-09-27T02:33:59;94240.19;;;9.98;100.00
55149;BME280;49539;48.160;11.530;2022-09-27T02:36:26;94246.09;;;9.97;100.00
55149;BME280;49539;48.160;11.530;2022-09-27T02:38:52;94244.13;;;9.97;100.00
55149;BME280;49539;48.160;11.530;2022-09-27T02:41:19;94227.97;;;9.93;100.00
55149;BME280;49539;48.160;11.530;2022-09-27T02:43:48;94219.97;;;9.90;100.00
55149;BME280;49539;48.160;11.530;2022-09-27T02:49:06;94232.81;;;9.89;100.00
55149;BME280;49539;48.160;11.530;2022-09-27T02:55:00;94205.00;;;9.85;100.00
55149;BME280;49539;48.160;11.530;2022-09-27T02:57:40;94217.69;;;9.88;100.00
55149;BME280;49539;48.160;11.530;2022-09-27T03:00:19;94219.06;;;9.84;100.00
55149;BME280;49539;48.160;11.530;2022-09-27T03:03:02;94206.06;;;9.79;100.00
55149;BME280;49539;48.160;11.530;2022-09-27T03:05:33;94198.50;;;9.83;100.00
55149;BME280;49539;48.160;11.530;2022-09-27T03:08:02;94203.53;;;9.75;100.00
55149;BME280;49539;48.160;11.530;2022-09-27T03:10:28;94187.66;;;9.74;100.00
55149;BME280;49539;48.160;11.530;2022-09-27T03:12:55;94197.31;;;9.84;100.00
55149;BME280;49539;48.160;11.530;2022-09-27T03:15:21;94192.94;;;9.77;100.00
55149;BME280;49539;48.160;11.530;2022-09-27T03:17:47;94198.84;;;9.76;100.00
55149;BME280;49539;48.160;11.530;2022-09-27T03:20:12;94186.88;;;9.82;100.00
55149;BME280;49539;48.160;11.530;2022-09-27T03:22:38;94186.44;;;9.84;100.00
55149;BME280;49539;48.160;11.530;2022-09-27T03:25:05;94188.72;;;9.76;100.00
55149;BME280;49539;48.160;11.530;2022-09-27T03:27:31;94177.22;;;9.81;100.00
55149;BME280;49539;48.160;11.530;2022-09-27T03:29:56;94180.22;;;9.83;100.00
55149;BME280;49539;48.160;11.530;2022-09-27T03:32:22;94178.72;;;9.82;100.00
55149;BME280;49539;48.160;11.530;2022-09-27T03:34:47;94178.72;;;9.82;100.00
55149;BME280;49539;48.160;11.530;2022-09-27T03:37:13;94174.94;;;9.89;100.00
55149;BME280;49539;48.160;11.530;2022-09-27T03:39:38;94172.50;;;9.91;100.00
55149;BME280;49539;48.160;11.530;2022-09-27T03:42:05;94173.88;;;9.86;100.00
55149;BME280;49539;48.160;11.530;2022-09-27T03:44:30;94169.19;;;9.96;100.00
55149;BME280;49539;48.160;11.530;2022-09-27T03:46:57;94166.94;;;9.85;100.00
55149;BME280;49539;48.160;11.530;2022-09-27T03:49:23;94167.53;;;9.89;100.00
55149;BME280;49539;48.160;11.530;2022-09-27T03:51:48;94158.47;;;9.92;100.00
55149;BME280;49539;48.160;11.530;2022-09-27T03:54:13;94164.50;;;9.97;100.00
55149;BME280;49539;48.160;11.530;2022-09-27T03:56:39;94162.06;;;9.99;100.00
55149;BME280;49539;48.160;11.530;2022-09-27T03:59:04;94158.31;;;9.96;100.00
55149;BME280;49539;48.160;11.530;2022-09-27T04:01:30;94156.03;;;9.94;100.00
55149;BME280;49539;48.160;11.530;2022-09-27T04:03:55;94157.88;;;9.88;100.00
55149;BME280;49539;48.160;11.530;2022-09-27T04:06:21;94158.63;;;9.89;100.00
55149;BME280;49539;48.160;11.530;2022-09-27T04:08:47;94151.97;;;9.90;100.00
55149;BME280;49539;48.160;11.530;2022-09-27T04:11:12;94156.94;;;9.91;100.00
55149;BME280;49539;48.160;11.530;2022-09-27T04:13:40;94143.34;;;9.91;100.00
55149;BME280;49539;48.160;11.530;2022-09-27T04:16:05;94153.47;;;9.91;100.00
55149;BME280;49539;48.160;11.530;2022-09-27T04:18:32;94147.88;;;9.94;100.00
55149;BME280;49539;48.160;11.530;2022-09-27T04:20:57;94154.81;;;9.95;100.00
55149;BME280;49539;48.160;11.530;2022-09-27T04:23:23;94158.59;;;9.98;100.00
55149;BME280;49539;48.160;11.530;2022-09-27T04:25:49;94154.81;;;9.95;100.00
55149;BME280;49539;48.160;11.530;2022-09-27T04:28:14;94150.75;;;10.00;100.00
55149;BME280;49539;48.160;11.530;2022-09-27T04:30:40;94160.59;;;9.88;100.00
55149;BME280;49539;48.160;11.530;2022-09-27T04:33:06;94152.44;;;9.88;100.00
55149;BME280;49539;48.160;11.530;2022-09-27T04:35:31;94164.81;;;9.89;100.00
55149;BME280;49539;48.160;11.530;2022-09-27T04:38:15;94156.97;;;9.82;100.00
55149;BME280;49539;48.160;11.530;2022-09-27T04:40:40;94162.56;;;9.88;100.00
55149;BME280;49539;48.160;11.530;2022-09-27T04:43:06;94156.06;;;9.85;100.00
55149;BME280;49539;48.160;11.530;2022-09-27T04:45:32;94155.81;;;9.65;100.00
55149;BME280;49539;48.160;11.530;2022-09-27T04:47:57;94150.09;;;9.63;100.00
55149;BME280;49539;48.160;11.530;2022-09-27T04:50:23;94151.44;;;9.67;100.00
55149;BME280;49539;48.160;11.530;2022-09-27T04:52:52;94155.19;;;9.70;100.00
55149;BME280;49539;48.160;11.530;2022-09-27T04:55:18;94162.16;;;9.71;100.00
55149;BME280;49539;48.160;11.530;2022-09-27T04:57:44;94175.91;;;9.67;100.00
55149;BME280;49539;48.160;11.530;2022-09-27T05:00:10;94179.66;;;9.79;100.00
55149;BME280;49539;48.160;11.530;2022-09-27T05:02:36;94174.97;;;9.70;100.00
55149;BME280;49539;48.160;11.530;2022-09-27T05:05:01;94169.69;;;9.76;100.00
55149;BME280;49539;48.160;11.530;2022-09-27T05:07:27;94186.25;;;9.87;100.00
55149;BME280;49539;48.160;11.530;2022-09-27T05:09:53;94182.66;;;9.81;100.00
55149;BME280;49539;48.160;11.530;2022-09-27T05:12:19;94180.81;;;9.87;100.00
55149;BME280;49539;48.160;11.530;2022-09-27T05:14:45;94174.78;;;9.83;100.00
55149;BME280;49539;48.160;11.530;2022-09-27T05:17:11;94174.50;;;9.81;100.00
55149;BME280;49539;48.160;11.530;2022-09-27T05:19:36;94176.91;;;9.88;100.00
55149;BME280;49539;48.160;11.530;2022-09-27T05:22:05;94187.78;;;9.88;100.00
55149;BME280;49539;48.160;11.530;2022-09-27T05:24:31;94196.53;;;9.92;100.00
55149;BME280;49539;48.160;11.530;2022-09-27T05:27:00;94200.97;;;9.72;100.00
55149;BME280;49539;48.160;11.530;2022-09-27T05:29:26;94193.41;;;9.66;100.00
55149;BME280;49539;48.160;11.530;2022-09-27T05:31:52;94187.53;;;9.68;100.00
55149;BME280;49539;48.160;11.530;2022-09-27T05:34:17;94187.38;;;9.62;100.00
55149;BME280;49539;48.160;11.530;2022-09-27T05:36:48;94189.34;;;9.53;100.00
55149;BME280;49539;48.160;11.530;2022-09-27T05:39:14;94194.03;;;9.61;100.00
55149;BME280;49539;48.160;11.530;2022-09-27T05:41:45;94188.16;;;9.63;100.00
55149;BME280;49539;48.160;11.530;2022-09-27T05:44:10;94194.19;;;9.67;100.00
55149;BME280;49539;48.160;11.530;2022-09-27T05:46:38;94198.72;;;9.61;100.00
55149;BME280;49539;48.160;11.530;2022-09-27T05:49:04;94207.31;;;9.59;100.00
55149;BME280;49539;48.160;11.530;2022-09-27T05:51:29;94205.50;;;9.56;100.00
55149;BME280;49539;48.160;11.530;2022-09-27T05:53:55;94202.03;;;9.56;100.00
55149;BME280;49539;48.160;11.530;2022-09-27T05:56:20;94197.53;;;9.43;100.00
55149;BME280;49539;48.160;11.530;2022-09-27T05:58:45;94205.38;;;9.51;100.00
55149;BME280;49539;48.160;11.530;2022-09-27T06:01:11;94196.59;;;9.37;100.00
55149;BME280;49539;48.160;11.530;2022-09-27T06:03:36;94208.25;;;9.47;100.00
55149;BME280;49539;48.160;11.530;2022-09-27T06:06:03;94209.91;;;9.44;100.00
55149;BME280;49539;48.160;11.530;2022-09-27T06:08:34;94215.03;;;9.33;100.00
55149;BME280;49539;48.160;11.530;2022-09-27T06:11:01;94213.97;;;9.31;100.00
55149;BME280;49539;48.160;11.530;2022-09-27T06:13:30;94215.03;;;9.33;100.00
55149;BME280;49539;48.160;11.530;2022-09-27T06:15:57;94207.78;;;9.30;100.00
55149;BME280;49539;48.160;11.530;2022-09-27T06:18:23;94218.50;;;9.25;100.00
55149;BME280;49539;48.160;11.530;2022-09-27T06:20:49;94225.44;;;9.26;100.00
55149;BME280;49539;48.160;11.530;2022-09-27T06:23:19;94226.34;;;9.23;100.00
55149;BME280;49539;48.160;11.530;2022-09-27T06:25:46;94231.94;;;9.19;100.00
55149;BME280;49539;48.160;11.530;2022-09-27T06:28:12;94242.19;;;9.24;100.00
55149;BME280;49539;48.160;11.530;2022-09-27T06:30:43;94251.56;;;9.32;100.00
55149;BME280;49539;48.160;11.530;2022-09-27T06:33:12;94242.78;;;9.37;100.00
55149;BME280;49539;48.160;11.530;2022-09-27T06:35:39;94244.47;;;9.44;100.00
55149;BME280;49539;48.160;11.530;2022-09-27T06:38:06;94250.50;;;9.57;100.00
55149;BME280;49539;48.160;11.530;2022-09-27T06:40:35;94246.75;;;9.55;100.00
55149;BME280;49539;48.160;11.530;2022-09-27T06:43:05;94249.63;;;9.51;100.00
55149;BME280;49539;48.160;11.530;2022-09-27T06:45:33;94258.81;;;9.63;100.00
55149;BME280;49539;48.160;11.530;2022-09-27T06:48:00;94259.88;;;9.65;100.00
55149;BME280;49539;48.160;11.530;2022-09-27T06:50:28;94271.50;;;9.66;100.00
55149;BME280;49539;48.160;11.530;2022-09-27T06:52:54;94258.03;;;9.62;100.00
55149;BME280;49539;48.160;11.530;2022-09-27T06:55:19;94254.44;;;9.65;100.00
55149;BME280;49539;48.160;11.530;2022-09-27T06:57:45;94253.06;;;9.70;100.00
55149;BME280;49539;48.160;11.530;2022-09-27T07:00:29;94255.78;;;9.88;100.00
55149;BME280;49539;48.160;11.530;2022-09-27T07:02:56;94258.94;;;9.96;100.00
55149;BME280;49539;48.160;11.530;2022-09-27T07:05:28;94265.13;;;10.06;100.00
55149;BME280;49539;48.160;11.530;2022-09-27T07:07:55;94279.94;;;10.05;100.00
55149;BME280;49539;48.160;11.530;2022-09-27T07:10:27;94267.84;;;10.06;100.00
55149;BME280;49539;48.160;11.530;2022-09-27T07:12:54;94277.97;;;10.05;100.00
55149;BME280;49539;48.160;11.530;2022-09-27T07:15:21;94269.78;;;10.14;100.00
55149;BME280;49539;48.160;11.530;2022-09-27T07:17:54;94268.13;;;10.17;100.00
55149;BME280;49539;48.160;11.530;2022-09-27T07:20:20;94273.56;;;10.17;100.00
55149;BME280;49539;48.160;11.530;2022-09-27T07:22:45;94268.91;;;10.08;100.00
55149;BME280;49539;48.160;11.530;2022-09-27T07:25:11;94277.16;;;10.23;100.00
55149;BME280;49539;48.160;11.530;2022-09-27T07:27:37;94268.28;;;10.13;100.00
55149;BME280;49539;48.160;11.530;2022-09-27T07:30:03;94273.56;;;10.17;100.00
55149;BME280;49539;48.160;11.530;2022-09-27T07:32:32;94267.50;;;10.22;100.00
55149;BME280;49539;48.160;11.530;2022-09-27T07:34:59;94267.34;;;10.35;100.00
55149;BME280;49539;48.160;11.530;2022-09-27T07:37:25;94269.78;;;10.33;100.00
55149;BME280;49539;48.160;11.530;2022-09-27T07:39:50;94264.53;;;10.53;100.00
55149;BME280;49539;48.160;11.530;2022-09-27T07:42:16;94274.69;;;10.53;100.00
55149;BME280;49539;48.160;11.530;2022-09-27T07:44:41;94265.97;;;10.39;100.00
55149;BME280;49539;48.160;11.530;2022-09-27T07:47:07;94269.91;;;10.38;100.00
55149;BME280;49539;48.160;11.530;2022-09-27T07:49:32;94268.41;;;10.37;100.00
55149;BME280;49539;48.160;11.530;2022-09-27T07:51:58;94279.72;;;10.36;100.00
55149;BME280;49539;48.160;11.530;2022-09-27T07:54:23;94271.25;;;10.43;100.00
55149;BME280;49539;48.160;11.530;2022-09-27T07:56:49;94273.44;;;10.63;100.00
55149;BME280;49539;48.160;11.530;2022-09-27T07:59:14;94272.16;;;10.82;100.00
55149;BME280;49539;48.160;11.530;2022-09-27T08:01:40;94269.06;;;10.99;100.00
55149;BME280;49539;48.160;11.530;2022-09-27T08:04:05;94277.53;;;11.25;100.00
55149;BME280;49539;48.160;11.530;2022-09-27T08:06:30;94294.84;;;11.12;100.00
55149;BME280;49539;48.160;11.530;2022-09-27T08:08:56;94351.84;;;10.40;100.00
55149;BME280;49539;48.160;11.530;2022-09-27T08:11:23;94351.13;;;9.08;100.00
55149;BME280;49539;48.160;11.530;2022-09-27T08:13:49;94354.84;;;8.92;100.00
55149;BME280;49539;48.160;11.530;2022-09-27T08:16:16;94362.38;;;8.57;100.00
55149;BME280;49539;48.160;11.530;2022-09-27T08:18:42;94369.94;;;8.62;100.00
55149;BME280;49539;48.160;11.530;2022-09-27T08:21:07;94391.50;;;8.56;100.00
55149;BME280;49539;48.160;11.530;2022-09-27T08:23:33;94376.00;;;8.66;100.00
55149;BME280;49539;48.160;11.530;2022-09-27T08:25:58;94389.41;;;8.60;100.00
55149;BME280;49539;48.160;11.530;2022-09-27T08:28:25;94391.28;;;8.51;100.00
55149;BME280;49539;48.160;11.530;2022-09-27T08:30:51;94393.69;;;8.49;100.00
55149;BME280;49539;48.160;11.530;2022-09-27T08:33:17;94387.69;;;8.54;100.00
55149;BME280;49539;48.160;11.530;2022-09-27T08:35:42;94398.03;;;8.46;100.00
55149;BME280;49539;48.160;11.530;2022-09-27T08:38:09;94400.13;;;8.42;100.00
55149;BME280;49539;48.160;11.530;2022-09-27T08:40:53;94393.19;;;8.41;100.00
55149;BME280;49539;48.160;11.530;2022-09-27T08:43:35;94398.41;;;8.57;100.00
55149;BME280;49539;48.160;11.530;2022-09-27T08:48:50;94418.25;;;8.76;100.00
55149;BME280;49539;48.160;11.530;2022-09-27T08:51:20;94396.75;;;8.82;100.00
55149;BME280;49539;48.160;11.530;2022-09-27T08:53:52;94386.66;;;8.91;100.00
55149;BME280;49539;48.160;11.530;2022-09-27T08:56:21;94389.59;;;8.97;100.00
55149;BME280;49539;48.160;11.530;2022-09-27T08:59:06;94382.13;;;9.29;100.00
55149;BME280;49539;48.160;11.530;2022-09-27T09:01:36;94386.81;;;9.28;100.00
55149;BME280;49539;48.160;11.530;2022-09-27T09:04:02;94386.47;;;9.17;100.00
55149;BME280;49539;48.160;11.530;2022-09-27T09:15:04;94388.78;;;9.28;100.00
55149;BME280;49539;48.160;11.530;2022-09-27T09:17:38;94392.38;;;9.25;100.00
55149;BME280;49539;48.160;11.530;2022-09-27T09:20:24;94387.16;;;9.39;100.00
55149;BME280;49539;48.160;11.530;2022-09-27T09:23:17;94391.84;;;9.57;100.00
55149;BME280;49539;48.160;11.530;2022-09-27T09:26:10;94378.31;;;9.76;100.00
55149;BME280;49539;48.160;11.530;2022-09-27T09:29:00;94365.31;;;9.89;100.00
55149;BME280;49539;48.160;11.530;2022-09-27T09:31:52;94371.34;;;10.11;100.00
55149;BME280;49539;48.160;11.530;2022-09-27T09:34:23;94382.69;;;10.28;100.00
55149;BME280;49539;48.160;11.530;2022-09-27T09:39:39;94379.22;;;10.46;100.00
55149;BME280;49539;48.160;11.530;2022-09-27T09:42:19;94372.09;;;10.49;100.00
55149;BME280;49539;48.160;11.530;2022-09-27T09:45:02;94388.28;;;10.15;100.00
55149;BME280;49539;48.160;11.530;2022-09-27T09:47:35;94383.63;;;10.34;100.00
55149;BME280;49539;48.160;11.530;2022-09-27T09:50:17;94383.91;;;10.27;100.00
55149;BME280;49539;48.160;11.530;2022-09-27T09:52:49;94393.25;;;10.08;100.00
55149;BME280;49539;48.160;11.530;2022-09-27T09:55:23;94380.72;;;10.01;100.00
55149;BME280;49539;48.160;11.530;2022-09-27T10:00:38;94382.56;;;10.41;100.00
55149;BME280;49539;48.160;11.530;2022-09-27T10:03:04;94383.31;;;10.41;100.00
55149;BME280;49539;48.160;11.530;2022-09-27T10:05:30;94376.19;;;10.44;100.00
55149;BME280;49539;48.160;11.530;2022-09-27T10:07:57;94378.63;;;10.33;100.00
55149;BME280;49539;48.160;11.530;2022-09-27T10:10:25;94394.94;;;10.24;100.00
55149;BME280;49539;48.160;11.530;2022-09-27T10:12:51;94386.94;;;10.38;100.00
55149;BME280;49539;48.160;11.530;2022-09-27T10:15:19;94386.00;;;10.60;100.00
55149;BME280;49539;48.160;11.530;2022-09-27T10:17:54;94405.34;;;10.53;100.00
55149;BME280;49539;48.160;11.530;2022-09-27T10:23:02;94409.59;;;10.44;100.00
55149;BME280;49539;48.160;11.530;2022-09-27T10:25:54;94391.63;;;10.38;100.00
55149;BME280;49539;48.160;11.530;2022-09-27T10:28:34;94401.59;;;10.32;100.00
55149;BME280;49539;48.160;11.530;2022-09-27T10:31:21;94403.72;;;10.46;100.00
55149;BME280;49539;48.160;11.530;2022-09-27T10:36:29;94411.53;;;10.72;100.00
55149;BME280;49539;48.160;11.530;2022-09-27T10:38:57;94405.53;;;10.58;100.00
55149;BME280;49539;48.160;11.530;2022-09-27T10:41:34;94425.06;;;10.29;100.00
55149;BME280;49539;48.160;11.530;2022-09-27T10:46:47;94451.19;;;9.50;100.00
55149;BME280;49539;48.160;11.530;2022-09-27T10:49:25;94438.47;;;9.37;100.00
55149;BME280;49539;48.160;11.530;2022-09-27T10:51:54;94436.69;;;9.43;100.00
55149;BME280;49539;48.160;11.530;2022-09-27T10:54:32;94432.75;;;9.44;100.00
55149;BME280;49539;48.160;11.530;2022-09-27T10:57:04;94429.75;;;9.52;100.00
55149;BME280;49539;48.160;11.530;2022-09-27T10:59:34;94430.41;;;9.74;100.00
55149;BME280;49539;48.160;11.530;2022-09-27T11:02:01;94426.97;;;10.19;100.00
55149;BME280;49539;48.160;11.530;2022-09-27T11:04:32;94426.72;;;10.45;100.00
55149;BME280;49539;48.160;11.530;2022-09-27T11:07:12;94412.91;;;10.67;100.00
55149;BME280;49539;48.160;11.530;2022-09-27T11:09:50;94421.28;;;11.06;100.00
55149;BME280;49539;48.160;11.530;2022-09-27T11:12:17;94412.69;;;10.89;100.00
55149;BME280;49539;48.160;11.530;2022-09-27T11:14:54;94392.78;;;11.16;100.00
55149;BME280;49539;48.160;11.530;2022-09-27T11:17:35;94389.91;;;11.43;100.00
55149;BME280;49539;48.160;11.530;2022-09-27T11:25:39;94410.38;;;10.54;100.00
55149;BME280;49539;48.160;11.530;2022-09-27T11:28:38;94420.16;;;10.24;100.00
55149;BME280;49539;48.160;11.530;2022-09-27T11:34:46;94417.78;;;10.26;100.00
55149;BME280;49539;48.160;11.530;2022-09-27T11:37:26;94400.25;;;10.27;100.00
55149;BME280;49539;48.160;11.530;2022-09-27T11:46:02;94414.09;;;9.83;100.00
55149;BME280;49539;48.160;11.530;2022-09-27T11:48:38;94420.72;;;9.55;100.00
55149;BME280;49539;48.160;11.530;2022-09-27T11:53:56;94409.44;;;9.93;100.00
55149;BME280;49539;48.160;11.530;2022-09-27T11:56:42;94399.75;;;10.19;100.00
55149;BME280;49539;48.160;11.530;2022-09-27T12:02:28;94402.50;;;10.01;100.00
55149;BME280;49539;48.160;11.530;2022-09-27T12:07:44;94416.78;;;9.47;100.00
55149;BME280;49539;48.160;11.530;2022-09-27T12:10:15;94426.59;;;9.13;100.00
55149;BME280;49539;48.160;11.530;2022-09-27T12:12:45;94434.78;;;8.91;100.00
55149;BME280;49539;48.160;11.530;2022-09-27T12:15:27;94483.94;;;8.62;100.00
55149;BME280;49539;48.160;11.530;2022-09-27T12:18:11;94467.69;;;8.27;100.00
55149;BME280;49539;48.160;11.530;2022-09-27T12:20:39;94462.81;;;8.22;100.00
55149;BME280;49539;48.160;11.530;2022-09-27T12:25:36;94448.69;;;8.27;100.00
55149;BME280;49539;48.160;11.530;2022-09-27T12:30:56;94452.88;;;8.85;100.00
55149;BME280;49539;48.160;11.530;2022-09-27T12:36:32;94435.41;;;9.76;100.00
55149;BME280;49539;48.160;11.530;2022-09-27T12:41:48;94414.72;;;10.61;100.00
55149;BME280;49539;48.160;11.530;2022-09-27T12:44:15;94407.03;;;10.59;100.00
55149;BME280;49539;48.160;11.530;2022-09-27T12:46:54;94407.78;;;10.60;100.00
55149;BME280;49539;48.160;11.530;2022-09-27T12:52:11;94402.31;;;10.69;100.00
55149;BME280;49539;48.160;11.530;2022-09-27T13:07:12;94384.66;;;10.55;100.00
55149;BME280;49539;48.160;11.530;2022-09-27T13:12:32;94391.81;;;10.86;100.00
55149;BME280;49539;48.160;11.530;2022-09-27T13:25:50;94352.09;;;13.82;100.00
55149;BME280;49539;48.160;11.530;2022-09-27T13:33:33;94363.34;;;11.86;100.00
55149;BME280;49539;48.160;11.530;2022-09-27T13:47:24;94356.94;;;12.58;100.00
55149;BME280;49539;48.160;11.530;2022-09-27T13:50:27;94370.09;;;12.15;100.00
55149;BME280;49539;48.160;11.530;2022-09-27T13:58:09;94360.91;;;11.31;100.00
55149;BME280;49539;48.160;11.530;2022-09-27T14:00:40;94347.00;;;11.29;100.00
55149;BME280;49539;48.160;11.530;2022-09-27T14:05:45;94355.56;;;11.13;100.00
55149;BME280;49539;48.160;11.530;2022-09-27T14:08:48;94358.50;;;11.00;100.00
55149;BME280;49539;48.160;11.530;2022-09-27T14:11:20;94355.19;;;10.96;100.00
55149;BME280;49539;48.160;11.530;2022-09-27T14:13:48;94365.75;;;10.94;100.00
55149;BME280;49539;48.160;11.530;2022-09-27T14:16:16;94366.81;;;10.97;100.00
55149;BME280;49539;48.160;11.530;2022-09-27T14:18:53;94373.63;;;11.01;100.00
55149;BME280;49539;48.160;11.530;2022-09-27T14:21:29;94361.47;;;11.68;100.00
55149;BME280;49539;48.160;11.530;2022-09-27T14:26:48;94373.16;;;16.07;100.00
55149;BME280;49539;48.160;11.530;2022-09-27T14:29:20;94376.63;;;17.40;100.00
55149;BME280;49539;48.160;11.530;2022-09-27T14:31:46;94380.91;;;17.02;100.00
55149;BME280;49539;48.160;11.530;2022-09-27T14:34:13;94386.22;;;15.69;100.00
55149;BME280;49539;48.160;11.530;2022-09-27T14:36:42;94394.13;;;15.24;100.00
55149;BME280;49539;48.160;11.530;2022-09-27T14:39:37;94385.66;;;13.12;100.00
55149;BME280;49539;48.160;11.530;2022-09-27T14:42:15;94394.41;;;12.42;100.00
55149;BME280;49539;48.160;11.530;2022-09-27T14:44:43;94392.34;;;11.75;100.00
55149;BME280;49539;48.160;11.530;2022-09-27T14:47:19;94391.41;;;11.54;100.00
55149;BME280;49539;48.160;11.530;2022-09-27T14:49:55;94391.19;;;11.33;100.00
55149;BME280;49539;48.160;11.530;2022-09-27T14:52:26;94386.44;;;11.10;100.00
55149;BME280;49539;48.160;11.530;2022-09-27T14:55:13;94386.78;;;11.03;100.00
55149;BME280;49539;48.160;11.530;2022-09-27T14:57:44;94383.50;;;10.89;100.00
55149;BME280;49539;48.160;11.530;2022-09-27T15:00:16;94384.91;;;10.76;100.00
55149;BME280;49539;48.160;11.530;2022-09-27T15:02:42;94391.97;;;10.91;100.00
55149;BME280;49539;48.160;11.530;2022-09-27T15:05:16;94386.72;;;10.79;100.00
55149;BME280;49539;48.160;11.530;2022-09-27T15:07:44;94383.38;;;10.84;100.00
55149;BME280;49539;48.160;11.530;2022-09-27T15:10:20;94384.69;;;10.98;100.00
55149;BME280;49539;48.160;11.530;2022-09-27T15:12:50;94379.34;;;11.12;100.00
55149;BME280;49539;48.160;11.530;2022-09-27T15:15:23;94381.94;;;10.98;100.00
55149;BME280;49539;48.160;11.530;2022-09-27T15:17:50;94381.88;;;10.83;100.00
55149;BME280;49539;48.160;11.530;2022-09-27T15:22:56;94382.78;;;10.80;100.00
55149;BME280;49539;48.160;11.530;2022-09-27T15:25:23;94390.03;;;10.74;100.00
55149;BME280;49539;48.160;11.530;2022-09-27T15:27:52;94385.06;;;10.72;100.00